Time;durP1;ratioP1;P1;durP2;ratioP2;P2;SDS_P1;SDS_P2;PMS_P1;PMS_P2;Temp;Humidity;BMP_temperature;BMP_pressure;BME280_temperature;BME280_humidity;BME280_pressure;Samples;Min_cycle;Max_cycle;Signal;HPM_P1;HPM_P2
2024/04/26 00:01:52;;;;;;;16.65;4.97;;;;;;;15.92;100.00;100764.47;10929698;27;20006;-84
2024/04/26 00:07:19;;;;;;;14.60;3.97;;;;;;;15.97;100.00;100766.19;10932457;27;20033;-83
2024/04/26 00:12:45;;;;;;;16.20;4.10;;;;;;;15.93;100.00;100771.56;10940773;27;20018;-83
2024/04/26 00:18:09;;;;;;;13.27;3.65;;;;;;;15.81;100.00;100776.97;10923470;26;20017;-82
2024/04/26 00:23:37;;;;;;;15.52;4.15;;;;;;;15.82;100.00;100778.69;10920972;27;19998;-83
2024/04/26 00:29:01;;;;;;;14.77;4.32;;;;;;;15.73;100.00;100781.44;10956993;27;19998;-83
2024/04/26 00:34:25;;;;;;;16.23;3.83;;;;;;;15.53;100.00;100792.16;10987597;26;20034;-85
2024/04/26 00:39:52;;;;;;;17.98;4.03;;;;;;;15.48;100.00;100777.97;10931144;27;20002;-84
2024/04/26 00:45:18;;;;;;;18.55;4.00;;;;;;;15.39;100.00;100799.28;10972812;27;20210;-84
2024/04/26 00:50:42;;;;;;;17.15;3.90;;;;;;;15.34;100.00;100789.56;10920294;27;20054;-85
2024/04/26 00:56:10;;;;;;;13.57;3.97;;;;;;;15.31;100.00;100773.59;10972228;27;20012;-84
2024/04/26 01:01:36;;;;;;;15.13;3.53;;;;;;;15.14;100.00;100808.22;10971480;27;20017;-83
2024/04/26 01:07:00;;;;;;;11.73;3.58;;;;;;;15.18;100.00;100796.69;10956049;27;20005;-84
2024/04/26 01:12:27;;;;;;;11.77;3.80;;;;;;;15.02;100.00;100787.88;10929426;27;20013;-85
2024/04/26 01:17:52;;;;;;;14.75;4.35;;;;;;;14.93;100.00;100787.00;10944809;27;20006;-83
2024/04/26 01:23:16;;;;;;;15.60;3.80;;;;;;;14.95;100.00;100799.41;10965735;27;20037;-83
2024/04/26 01:28:43;;;;;;;13.43;3.45;;;;;;;14.95;100.00;100778.13;10949004;27;20343;-83
2024/04/26 01:34:07;;;;;;;13.93;3.42;;;;;;;14.82;100.00;100792.34;10971469;27;20514;-83
2024/04/26 01:39:32;;;;;;;11.52;3.28;;;;;;;14.71;100.00;100810.94;10944145;27;20452;-83
2024/04/26 01:44:59;;;;;;;11.05;3.13;;;;;;;14.72;100.00;100777.28;10919052;27;20065;-84
2024/04/26 01:50:23;;;;;;;11.20;3.35;;;;;;;14.54;100.00;100798.53;10894739;27;20017;-83
2024/04/26 01:55:48;;;;;;;15.18;2.65;;;;;;;14.71;100.00;100818.00;10937336;27;20002;-83
2024/04/26 02:01:16;;;;;;;10.55;3.05;;;;;;;14.81;100.00;100782.59;10961470;27;20451;-83
2024/04/26 02:06:40;;;;;;;10.80;2.90;;;;;;;14.83;100.00;100801.19;10942030;27;20071;-81
2024/04/26 02:12:04;;;;;;;9.68;2.78;;;;;;;14.73;100.00;100830.44;10970769;27;20134;-83
2024/04/26 02:17:33;;;;;;;10.40;2.35;;;;;;;14.64;100.00;100795.88;10946371;26;20008;-83
2024/04/26 02:22:57;;;;;;;;;;;;;;;14.77;100.00;100832.19;10990288;26;20013;-84
2024/04/26 02:28:22;;;;;;;9.93;2.53;;;;;;;14.68;100.00;100836.63;10941137;27;20578;-83
2024/04/26 02:33:49;;;;;;;8.52;2.58;;;;;;;14.61;100.00;100821.56;10925906;27;20029;-84
2024/04/26 02:39:13;;;;;;;10.38;2.60;;;;;;;14.59;100.00;100840.16;10916272;27;20028;-83
2024/04/26 02:44:38;;;;;;;11.90;2.90;;;;;;;14.69;100.00;100828.66;10956848;27;20080;-83
2024/04/26 02:50:06;;;;;;;8.90;2.80;;;;;;;14.81;100.00;100829.53;10913976;27;20213;-83
2024/04/26 02:55:30;;;;;;;9.55;2.40;;;;;;;14.68;100.00;100855.22;10933255;27;20371;-84
2024/04/26 03:00:55;;;;;;;11.40;3.65;;;;;;;14.57;100.00;100862.31;10951410;27;20006;-84
2024/04/26 03:06:22;;;;;;;8.38;2.65;;;;;;;14.41;100.00;100855.19;10965165;27;20039;-83
2024/04/26 03:11:46;;;;;;;9.27;3.00;;;;;;;14.38;100.00;100860.50;10964310;27;20022;-84
2024/04/26 03:17:11;;;;;;;9.35;2.72;;;;;;;14.32;100.00;100856.03;10942868;27;20457;-83
2024/04/26 03:22:38;;;;;;;9.52;2.22;;;;;;;14.22;100.00;100857.78;10926629;27;20047;-83
2024/04/26 03:28:02;;;;;;;8.73;2.80;;;;;;;14.10;100.00;100860.44;10952339;27;20006;-83
2024/04/26 03:33:26;;;;;;;9.55;2.72;;;;;;;14.16;100.00;100868.41;10938321;27;20002;-84
2024/04/26 03:38:53;;;;;;;7.70;2.55;;;;;;;14.13;100.00;100862.19;10964459;27;20009;-83
2024/04/26 03:44:18;;;;;;;9.80;2.58;;;;;;;13.96;100.00;100870.09;10921418;27;20096;-84
2024/04/26 03:49:42;;;;;;;10.40;2.70;;;;;;;13.87;100.00;100891.28;10969723;27;20522;-83
2024/04/26 03:55:10;;;;;;;7.70;2.03;;;;;;;14.25;100.00;100875.47;10943587;27;20008;-83
2024/04/26 04:00:34;;;;;;;6.80;1.90;;;;;;;14.56;100.00;100874.72;10946892;27;20002;-82
2024/04/26 04:05:59;;;;;;;9.75;2.20;;;;;;;14.86;100.00;100908.38;10964874;27;20006;-84
2024/04/26 04:11:26;;;;;;;9.25;1.70;;;;;;;15.16;100.00;100908.38;10921678;27;20003;-84
2024/04/26 04:16:50;;;;;;;4.88;1.90;;;;;;;15.59;100.00;100903.03;10929492;27;20020;-83
2024/04/26 04:22:14;;;;;;;12.93;2.10;;;;;;;16.00;100.00;100907.31;10981225;27;20034;-83
2024/04/26 04:27:42;;;;;;;10.85;6.65;;;;;;;16.08;100.00;100919.69;10955318;27;20001;-84
2024/04/26 04:33:07;;;;;;;6.40;2.00;;;;;;;16.07;100.00;100925.94;10935035;27;20054;-82
2024/04/26 04:38:31;;;;;;;5.80;1.50;;;;;;;16.43;100.00;100916.84;10916688;27;20086;-83
2024/04/26 04:43:58;;;;;;;39.08;18.65;;;;;;;17.20;100.00;100934.09;10901023;27;20347;-84
2024/04/26 04:49:22;;;;;;;11.98;5.47;;;;;;;17.72;100.00;100938.97;10933331;27;20389;-84
2024/04/26 04:54:46;;;;;;;16.20;6.40;;;;;;;18.23;100.00;100932.13;10935782;27;20084;-84
2024/04/26 05:00:14;;;;;;;3.58;1.70;;;;;;;18.89;100.00;100926.75;10966867;27;20369;-83
2024/04/26 05:05:39;;;;;;;6.40;1.67;;;;;;;19.56;100.00;100930.97;10947845;27;20005;-85
2024/04/26 05:11:03;;;;;;;5.00;1.42;;;;;;;20.30;100.00;100943.75;10947837;27;20030;-88
2024/04/26 05:16:31;;;;;;;7.78;1.70;;;;;;;20.85;94.08;100933.59;10929602;26;20342;-87
2024/04/26 05:21:56;;;;;;;4.68;1.50;;;;;;;21.29;87.37;100924.47;10946887;26;20010;-87
2024/04/26 05:27:20;;;;;;;2.70;0.85;;;;;;;21.83;79.93;100932.88;10971741;27;20552;-86
2024/04/26 05:32:52;;;;;;;3.65;1.20;;;;;;;22.38;72.28;100936.69;10947566;27;20006;-85
2024/04/26 05:38:18;;;;;;;7.20;1.65;;;;;;;22.70;59.21;100925.81;10930559;27;20010;-85
2024/04/26 05:43:42;;;;;;;5.05;1.50;;;;;;;22.88;55.08;100917.16;10951031;27;20016;-86
2024/04/26 05:49:09;;;;;;;7.50;1.13;;;;;;;23.32;51.85;100920.16;10927894;27;20002;-85
2024/04/26 05:54:34;;;;;;;3.35;1.20;;;;;;;23.77;49.07;100931.19;10959980;27;20038;-88
2024/04/26 05:59:59;;;;;;;4.07;1.17;;;;;;;24.11;47.36;100931.72;10954742;27;20006;-91
2024/04/26 06:05:29;;;;;;;5.15;1.15;;;;;;;24.14;44.41;100941.50;10944323;27;20007;-92
2024/04/26 06:10:53;;;;;;;7.72;1.20;;;;;;;24.31;44.07;100949.88;10972416;27;20715;-91
2024/04/26 06:16:18;;;;;;;6.95;1.42;;;;;;;24.53;43.64;100956.22;10952989;27;20135;-90
2024/04/26 06:21:45;;;;;;;3.75;1.20;;;;;;;24.85;43.18;100945.97;10953882;27;20014;-89
2024/04/26 06:27:09;;;;;;;;;;;;;;;25.28;42.89;100964.00;10966016;27;20001;-89
2024/04/26 06:32:33;;;;;;;6.55;1.83;;;;;;;25.63;41.95;100968.84;10932093;27;19926;-90
2024/04/26 06:38:01;;;;;;;7.18;1.30;;;;;;;25.79;41.00;100961.81;10952784;27;20002;-87
2024/04/26 06:43:25;;;;;;;6.45;1.27;;;;;;;25.99;40.28;100965.47;10956276;27;20005;-85
2024/04/26 06:48:50;;;;;;;2.53;0.90;;;;;;;26.36;39.77;100980.94;10977207;27;20020;-90
2024/04/26 06:54:16;;;;;;;8.18;1.73;;;;;;;26.60;39.78;100968.94;10927521;27;20006;-84
2024/04/26 06:59:41;;;;;;;;;;;;;;;26.90;38.25;100970.25;10938494;27;20058;-86
2024/04/26 07:05:07;;;;;;;5.15;1.10;;;;;;;27.01;38.16;100974.25;10941232;27;19927;-84
2024/04/26 07:10:38;;;;;;;4.70;1.20;;;;;;;27.38;37.27;100985.88;10962084;26;20025;-84
2024/04/26 07:16:03;;;;;;;2.90;0.70;;;;;;;27.60;35.60;100968.56;10920055;27;20017;-85
2024/04/26 07:21:27;;;;;;;6.32;1.00;;;;;;;27.79;35.02;100969.34;10935283;27;20076;-85
2024/04/26 07:26:54;;;;;;;3.45;1.10;;;;;;;27.93;35.14;100980.38;10926004;27;20018;-84
2024/04/26 07:32:19;;;;;;;4.00;1.48;;;;;;;27.98;34.88;100985.53;10922335;27;20018;-82
2024/04/26 07:37:43;;;;;;;3.85;1.10;;;;;;;28.15;35.31;100966.56;10945412;27;20038;-84
2024/04/26 07:43:11;;;;;;;4.25;0.90;;;;;;;28.06;35.67;100965.19;10910157;27;20010;-84
2024/04/26 07:48:35;;;;;;;3.88;1.08;;;;;;;28.00;35.49;100981.78;10944816;27;20028;-84
2024/04/26 07:53:59;;;;;;;4.03;0.93;;;;;;;28.31;35.38;100993.75;10945482;27;20010;-83
2024/04/26 07:59:27;;;;;;;9.82;1.15;;;;;;;28.23;35.53;100987.84;10970798;26;20033;-83
2024/04/26 08:04:51;;;;;;;3.40;0.88;;;;;;;28.20;35.49;100978.03;10925730;26;20475;-83
2024/04/26 08:10:15;;;;;;;7.47;1.45;;;;;;;28.81;35.03;100977.41;10937874;27;20014;-84
2024/04/26 08:15:43;;;;;;;4.32;0.88;;;;;;;28.26;35.06;100985.84;10962600;26;20006;-84
2024/04/26 08:21:08;;;;;;;7.00;1.00;;;;;;;28.20;35.12;100974.44;11042987;26;20075;-85
2024/04/26 08:26:34;;;;;;;6.20;1.23;;;;;;;28.51;34.91;100990.81;10957908;27;20038;-84
2024/04/26 08:32:01;;;;;;;7.30;1.30;;;;;;;28.79;34.48;100980.22;10943091;27;20003;-84
2024/04/26 08:37:26;;;;;;;3.47;1.17;;;;;;;28.93;33.98;100979.44;10918273;27;20410;-84
2024/04/26 08:42:52;;;;;;;3.35;1.02;;;;;;;29.09;33.82;100998.44;10924961;27;20013;-85
2024/04/26 08:48:19;;;;;;;6.93;0.93;;;;;;;29.48;32.94;100987.97;10985646;27;20079;-84
2024/04/26 08:53:44;;;;;;;2.53;0.98;;;;;;;29.52;32.91;100991.41;10986882;27;20316;-84
2024/04/26 08:59:09;;;;;;;4.28;1.08;;;;;;;29.88;32.57;101000.06;10951316;27;20320;-84
2024/04/26 09:04:37;;;;;;;5.43;1.10;;;;;;;30.13;32.04;100990.47;10893047;27;20084;-83
2024/04/26 09:10:01;;;;;;;2.80;1.27;;;;;;;30.33;31.47;100979.16;10981267;27;20087;-82
2024/04/26 09:15:25;;;;;;;3.65;0.93;;;;;;;30.23;31.91;100984.31;10962916;27;20006;-82
2024/04/26 09:20:54;;;;;;;4.28;1.13;;;;;;;29.84;33.17;100984.91;10978943;26;20042;-83
2024/04/26 09:26:19;;;;;;;3.92;0.93;;;;;;;30.04;32.61;100965.53;10962467;27;20001;-83
2024/04/26 09:31:44;;;;;;;3.83;1.27;;;;;;;30.39;32.17;100976.06;10891691;27;20725;-82
2024/04/26 09:37:12;;;;;;;7.05;1.15;;;;;;;30.84;32.02;100989.50;10917760;27;20026;-82
2024/04/26 09:42:37;;;;;;;4.55;1.40;;;;;;;31.02;31.26;100972.91;10937734;27;20604;-83
2024/04/26 09:48:04;;;;;;;6.00;1.13;;;;;;;30.88;30.41;100962.91;10930993;27;20199;-84
2024/04/26 09:53:32;;;;;;;3.78;1.35;;;;;;;31.12;30.94;100984.97;10980208;27;20049;-84
2024/04/26 09:58:56;;;;;;;5.30;1.20;;;;;;;31.22;31.28;100976.09;10959860;27;20006;-82
2024/04/26 10:04:20;;;;;;;6.43;1.20;;;;;;;31.25;30.90;100964.06;10927848;27;20010;-79
2024/04/26 10:09:58;;;;;;;4.20;1.10;;;;;;;31.53;31.13;100974.88;10952293;27;20025;-86
2024/04/26 10:15:23;;;;;;;7.75;1.58;;;;;;;31.17;31.40;100972.81;10940087;27;20034;-89
2024/04/26 10:20:48;;;;;;;4.47;1.20;;;;;;;30.75;32.00;100976.47;10910857;27;20003;-85
2024/04/26 10:26:15;;;;;;;8.65;1.50;;;;;;;30.48;32.79;100980.91;10887752;27;20010;-83
2024/04/26 10:31:41;;;;;;;5.53;2.00;;;;;;;30.13;32.36;100971.38;10958631;27;20081;-95
2024/04/26 10:37:05;;;;;;;4.40;1.10;;;;;;;29.82;32.71;100973.22;10936323;26;20021;-82
2024/04/26 10:42:33;;;;;;;7.00;1.45;;;;;;;29.07;34.10;100971.34;10912221;27;20131;-83
2024/04/26 10:47:57;;;;;;;6.07;1.35;;;;;;;29.25;34.31;100980.28;10923686;27;20006;-82
2024/04/26 10:53:22;;;;;;;5.40;1.38;;;;;;;29.57;34.19;100973.84;10973314;26;20134;-82
2024/04/26 10:58:49;;;;;;;4.28;1.05;;;;;;;29.49;34.04;100969.81;10958256;27;20077;-82
2024/04/26 11:04:18;;;;;;;7.18;1.58;;;;;;;29.18;34.51;100960.72;10933517;27;20043;-85
2024/04/26 11:09:47;;;;;;;5.68;1.77;;;;;;;29.02;35.08;100987.03;10994946;26;20074;-82
2024/04/26 11:15:14;;;;;;;7.93;1.40;;;;;;;29.19;35.32;100969.75;10959114;27;20030;-83
2024/04/26 11:20:39;;;;;;;5.13;1.30;;;;;;;29.07;35.21;100973.19;11011824;26;20013;-84
2024/04/26 11:26:03;;;;;;;6.28;1.10;;;;;;;28.60;35.83;100979.44;10928590;27;20100;-84
2024/04/26 11:31:31;;;;;;;11.75;1.58;;;;;;;28.94;35.79;100973.03;10926935;27;20012;-83
2024/04/26 11:36:56;;;;;;;5.57;1.25;;;;;;;29.26;34.89;100982.91;10929718;27;20084;-82
2024/04/26 11:42:20;;;;;;;8.50;1.10;;;;;;;29.23;34.44;100979.47;10941077;27;20168;-83
2024/04/26 11:47:47;;;;;;;5.43;1.40;;;;;;;29.18;34.34;100968.88;10982770;27;20030;-84
2024/04/26 11:53:11;;;;;;;5.45;1.13;;;;;;;29.25;34.41;100962.13;10965214;27;20013;-84
2024/04/26 11:58:36;;;;;;;4.47;1.00;;;;;;;29.14;34.28;100961.88;10935180;27;20006;-82
2024/04/26 12:04:04;;;;;;;6.15;1.20;;;;;;;29.02;34.13;100954.41;10929696;27;20007;-85
2024/04/26 12:09:28;;;;;;;6.20;1.40;;;;;;;28.62;34.41;100957.63;10955522;27;20076;-83
2024/04/26 12:14:52;;;;;;;5.35;1.05;;;;;;;28.40;34.70;100942.53;10917204;27;20006;-83
2024/04/26 12:20:19;;;;;;;7.72;1.27;;;;;;;28.23;35.20;100938.97;10975785;26;20002;-82
2024/04/26 12:25:44;;;;;;;6.22;1.25;;;;;;;27.86;35.28;100945.47;10987673;27;20005;-82
2024/04/26 12:31:08;;;;;;;5.18;1.60;;;;;;;27.67;35.85;100932.88;10900540;27;20006;-81
2024/04/26 12:36:37;;;;;;;6.25;1.00;;;;;;;27.26;36.35;100937.69;10917158;27;20013;-81
2024/04/26 12:42:03;;;;;;;2.55;1.00;;;;;;;27.08;36.58;100927.78;10961863;27;20001;-83
2024/04/26 12:47:29;;;;;;;6.70;1.40;;;;;;;26.97;36.84;100922.03;10889335;27;20006;-82
2024/04/26 12:52:56;;;;;;;4.50;1.15;;;;;;;26.77;37.67;100927.53;10966167;27;20061;-81
2024/04/26 12:58:21;;;;;;;2.97;0.80;;;;;;;26.86;37.16;100921.63;10971202;27;20013;-82
2024/04/26 13:03:45;;;;;;;4.43;1.27;;;;;;;26.99;37.13;100911.97;10974572;27;20081;-82
2024/04/26 13:09:12;;;;;;;4.28;1.00;;;;;;;26.86;37.17;100919.78;10985679;27;20005;-82
2024/04/26 13:14:36;;;;;;;4.95;1.35;;;;;;;26.69;37.45;100917.03;10959726;27;20018;-82
2024/04/26 13:20:01;;;;;;;5.88;1.15;;;;;;;26.53;37.45;100919.59;10901396;27;20084;-83
2024/04/26 13:25:28;;;;;;;3.72;1.10;;;;;;;26.34;38.39;100912.44;10959221;27;20013;-82
2024/04/26 13:30:52;;;;;;;2.28;1.00;;;;;;;25.95;38.89;100910.59;10945249;27;20085;-81
2024/04/26 13:36:16;;;;;;;5.40;1.50;;;;;;;25.78;39.24;100905.06;10926733;27;20006;-82
2024/04/26 13:41:45;;;;;;;4.28;1.10;;;;;;;25.64;39.32;100921.91;10965047;27;20419;-82
2024/04/26 13:47:09;;;;;;;4.70;1.02;;;;;;;25.47;39.67;100929.84;10963452;27;20006;-82
2024/04/26 13:52:33;;;;;;;5.10;1.15;;;;;;;25.24;40.71;100927.25;10891430;27;20010;-81
2024/04/26 13:58:01;;;;;;;5.82;1.13;;;;;;;25.31;39.94;100923.34;10940518;27;20061;-81
2024/04/26 14:03:25;;;;;;;3.50;0.93;;;;;;;25.19;40.27;100921.16;10943395;27;20008;-80
2024/04/26 14:08:49;;;;;;;2.63;1.10;;;;;;;25.25;40.33;100921.78;10972012;27;19998;-81
2024/04/26 14:14:16;;;;;;;3.38;0.80;;;;;;;25.22;40.58;100913.78;10924389;27;20002;-81
2024/04/26 14:19:40;;;;;;;6.15;0.88;;;;;;;25.12;40.95;100917.84;10963177;26;20486;-81
2024/04/26 14:25:05;;;;;;;1.80;0.98;;;;;;;25.24;40.88;100905.63;10924497;27;20443;-81
2024/04/26 14:30:33;;;;;;;4.15;1.23;;;;;;;25.25;40.71;100896.59;10955757;27;20003;-81
2024/04/26 14:35:57;;;;;;;4.60;0.90;;;;;;;25.36;40.50;100915.91;10932243;27;20002;-81
2024/04/26 14:41:23;;;;;;;4.65;1.05;;;;;;;25.54;40.40;100919.63;10917769;27;19998;-81
2024/04/26 14:46:51;;;;;;;4.77;1.00;;;;;;;26.08;40.22;100911.78;10940671;27;20014;-80
2024/04/26 14:52:16;;;;;;;;;;;;;;;26.27;40.32;100916.38;10920948;27;20002;-81
2024/04/26 14:57:40;;;;;;;1.50;0.90;;;;;;;26.32;40.41;100917.06;10956635;27;20382;-81
2024/04/26 15:03:08;;;;;;;5.05;1.00;;;;;;;26.51;40.09;100915.25;10937081;27;20032;-80
2024/04/26 15:08:32;;;;;;;6.65;1.50;;;;;;;26.50;39.61;100908.94;10940557;27;20030;-80
2024/04/26 15:13:57;;;;;;;6.32;1.40;;;;;;;25.78;40.10;100914.06;10947522;27;20006;-80
2024/04/26 15:19:24;;;;;;;2.72;1.00;;;;;;;25.22;41.18;100921.91;10942456;27;20020;-81
2024/04/26 15:24:49;;;;;;;5.10;1.10;;;;;;;24.65;42.40;100919.75;10955245;27;20021;-80
2024/04/26 15:30:14;;;;;;;3.42;1.38;;;;;;;24.15;43.70;100922.56;10929637;26;20080;-81
2024/04/26 15:35:41;;;;;;;6.57;1.60;;;;;;;23.77;45.33;100921.28;10896235;27;20073;-83
2024/04/26 15:41:06;;;;;;;4.97;1.40;;;;;;;23.31;46.57;100921.09;10937586;27;20022;-81
2024/04/26 15:46:30;;;;;;;4.45;1.10;;;;;;;23.01;48.21;100920.34;10982849;27;20002;-81
2024/04/26 15:51:58;;;;;;;3.80;1.20;;;;;;;22.85;51.07;100917.25;10969009;27;20006;-81
2024/04/26 15:57:22;;;;;;;9.75;1.50;;;;;;;22.74;52.37;100918.53;10996257;27;20002;-82
2024/04/26 16:02:47;;;;;;;5.07;1.17;;;;;;;22.48;54.37;100927.41;10948249;27;20435;-80
2024/04/26 16:08:14;;;;;;;5.82;1.30;;;;;;;22.40;54.90;100940.19;10927311;27;20014;-80
2024/04/26 16:13:38;;;;;;;5.60;1.67;;;;;;;22.31;55.19;100937.78;10977481;27;20002;-80
2024/04/26 16:19:02;;;;;;;5.50;1.20;;;;;;;22.07;57.09;100932.19;10939625;26;20484;-84
2024/04/26 16:24:29;;;;;;;6.25;1.33;;;;;;;21.90;58.48;100928.19;10957235;27;20002;-79
2024/04/26 16:29:55;;;;;;;5.13;1.63;;;;;;;21.71;59.83;100930.53;10944758;27;20016;-77
2024/04/26 16:35:23;;;;;;;3.40;1.15;;;;;;;21.62;61.88;100937.03;10975775;27;20005;-82
2024/04/26 16:40:49;;;;;;;;;;;;;;;21.55;63.81;100938.09;10988926;27;20038;-77
2024/04/26 16:46:21;;;;;;;8.27;1.88;;;;;;;21.31;68.79;100949.50;10992531;27;19926;-83
2024/04/26 16:51:46;;;;;;;4.25;1.50;;;;;;;21.10;71.88;100942.81;10960925;27;20002;-95
2024/04/26 16:57:13;;;;;;;5.35;1.65;;;;;;;21.00;75.24;100944.84;10930868;26;20013;-80
2024/04/26 17:02:37;;;;;;;6.70;1.53;;;;;;;20.85;76.31;100938.97;10938252;27;20400;-79
2024/04/26 17:08:01;;;;;;;7.90;1.30;;;;;;;20.77;77.58;100949.00;10938347;27;19998;-78
2024/04/26 17:13:28;;;;;;;4.80;1.60;;;;;;;20.72;79.61;100961.66;10951520;27;20013;-77
2024/04/26 17:18:53;;;;;;;8.27;1.30;;;;;;;20.56;80.54;100959.31;10957356;26;20076;-80
2024/04/26 17:24:17;;;;;;;5.35;1.70;;;;;;;20.41;82.21;100974.88;10962382;27;20467;-80
2024/04/26 17:29:45;;;;;;;4.85;1.75;;;;;;;20.25;85.05;100983.19;10987289;26;20024;-82
2024/04/26 17:35:09;;;;;;;6.67;1.60;;;;;;;20.09;87.67;100972.78;10949189;27;20021;-82
2024/04/26 17:40:34;;;;;;;8.07;1.70;;;;;;;20.01;87.28;100980.13;10971170;27;20037;-82
2024/04/26 17:46:01;;;;;;;8.30;1.70;;;;;;;19.88;90.44;100980.38;10905399;27;20006;-78
2024/04/26 17:51:25;;;;;;;4.57;1.60;;;;;;;19.67;93.72;100966.47;10958049;27;20016;-79
2024/04/26 17:56:49;;;;;;;6.30;1.50;;;;;;;19.44;93.51;100983.78;10923124;27;19998;-77
2024/04/26 18:02:16;;;;;;;6.72;1.42;;;;;;;19.00;96.78;100997.03;10920933;27;20080;-77
2024/04/26 18:07:40;;;;;;;6.70;1.70;;;;;;;19.07;97.98;100985.31;10918198;27;20014;-78
2024/04/26 18:13:04;;;;;;;7.88;1.67;;;;;;;19.05;99.06;100998.72;10951551;27;20354;-77
2024/04/26 18:18:32;;;;;;;5.68;1.27;;;;;;;18.97;99.97;101008.63;10909875;26;20001;-76
2024/04/26 18:23:59;;;;;;;4.63;1.50;;;;;;;18.95;100.00;100996.22;10941193;27;20423;-76
2024/04/26 18:29:23;;;;;;;5.57;1.70;;;;;;;18.87;100.00;100999.00;10966630;26;20012;-78
2024/04/26 18:34:50;;;;;;;7.03;1.80;;;;;;;18.68;100.00;101008.19;10961550;27;20010;-77
2024/04/26 18:40:15;;;;;;;7.05;1.90;;;;;;;18.57;100.00;100999.44;10959577;27;20010;-82
2024/04/26 18:45:39;;;;;;;5.53;1.60;;;;;;;18.49;100.00;101009.31;10979938;27;20455;-80
2024/04/26 18:51:07;;;;;;;6.40;1.70;;;;;;;18.35;100.00;101012.16;10956635;27;20005;-82
2024/04/26 18:56:31;;;;;;;7.10;2.00;;;;;;;18.19;100.00;101014.09;10973448;27;20085;-81
2024/04/26 19:01:56;;;;;;;9.38;1.88;;;;;;;18.09;100.00;101025.81;10978828;27;20001;-77
2024/04/26 19:07:23;;;;;;;4.25;1.50;;;;;;;17.81;100.00;101030.56;10961018;26;20458;-77
2024/04/26 19:12:52;;;;;;;5.70;1.75;;;;;;;17.75;100.00;101029.72;10966619;27;20017;-78
2024/04/26 19:18:17;;;;;;;4.72;2.00;;;;;;;17.59;100.00;101017.41;10954057;26;20002;-77
2024/04/26 19:23:44;;;;;;;6.07;1.70;;;;;;;17.63;100.00;101029.84;10948760;27;20017;-79
2024/04/26 19:29:08;;;;;;;5.10;1.70;;;;;;;17.61;100.00;101020.94;10906954;27;20016;-78
2024/04/26 19:34:33;;;;;;;5.88;1.80;;;;;;;17.50;100.00;101040.59;10906215;27;20069;-78
2024/04/26 19:40:00;;;;;;;6.00;1.83;;;;;;;17.53;100.00;101032.53;10959299;27;20083;-79
2024/04/26 19:45:24;;;;;;;8.83;1.63;;;;;;;17.62;100.00;101041.41;10926956;27;20003;-83
2024/04/26 19:50:50;;;;;;;6.43;1.88;;;;;;;17.64;100.00;101045.84;10947071;27;20228;-79
2024/04/26 19:56:18;;;;;;;2.88;1.75;;;;;;;17.52;100.00;101049.47;10934609;27;20443;-79
2024/04/26 20:01:43;;;;;;;5.40;1.63;;;;;;;17.16;100.00;101051.53;10934064;27;20371;-81
2024/04/26 20:07:07;;;;;;;6.25;1.65;;;;;;;16.89;100.00;101044.56;10916696;27;20007;-80
2024/04/26 20:12:34;;;;;;;7.68;1.95;;;;;;;16.81;100.00;101049.06;10956774;26;20453;-81
2024/04/26 20:17:59;;;;;;;7.20;2.58;;;;;;;16.89;100.00;101058.81;10974445;26;20005;-81
2024/04/26 20:23:23;;;;;;;5.22;1.65;;;;;;;16.80;100.00;101056.19;10936615;27;20016;-79
2024/04/26 20:28:52;;;;;;;4.68;1.67;;;;;;;16.81;100.00;101044.63;10937393;27;20002;-80
2024/04/26 20:34:17;;;;;;;2.85;1.40;;;;;;;16.65;100.00;101043.81;10986717;27;20018;-81
2024/04/26 20:39:41;;;;;;;4.22;1.52;;;;;;;16.73;100.00;101042.03;10938641;26;20413;-82
2024/04/26 20:45:09;;;;;;;6.68;1.83;;;;;;;16.71;100.00;101041.13;10959658;27;20002;-81
2024/04/26 20:50:34;;;;;;;6.18;1.40;;;;;;;16.70;100.00;101049.13;10930187;27;20009;-79
2024/04/26 20:55:58;;;;;;;2.75;1.55;;;;;;;16.61;100.00;101031.38;10962107;27;20021;-82
2024/04/26 21:01:25;;;;;;;7.72;2.20;;;;;;;16.64;100.00;101041.16;10950751;27;20010;-80
2024/04/26 21:06:50;;;;;;;5.47;1.50;;;;;;;16.55;99.19;101041.16;10974050;27;20014;-79
2024/04/26 21:12:15;;;;;;;3.47;1.30;;;;;;;16.48;95.47;101050.97;10962077;27;20001;-80
2024/04/26 21:17:41;;;;;;;2.67;1.27;;;;;;;16.26;96.01;101046.63;10996613;26;20032;-81
2024/04/26 21:23:06;;;;;;;4.20;1.77;;;;;;;16.08;99.28;101036.88;10935394;27;20002;-80
2024/04/26 21:28:30;;;;;;;3.67;1.40;;;;;;;16.10;97.00;101034.22;10945353;27;20058;-80
2024/04/26 21:33:58;;;;;;;2.17;1.08;;;;;;;15.84;95.78;101027.19;10939413;27;20016;-80
2024/04/26 21:39:22;;;;;;;3.55;1.30;;;;;;;15.73;94.28;101030.75;10928748;27;20006;-80
2024/04/26 21:44:46;;;;;;;2.17;1.23;;;;;;;15.48;94.78;101028.06;10938446;27;20373;-81
2024/04/26 21:50:13;;;;;;;5.03;1.48;;;;;;;15.35;95.69;101030.72;10977064;27;20338;-81
2024/04/26 21:55:38;;;;;;;3.20;1.20;;;;;;;15.44;94.75;101026.28;10956879;27;20006;-82
2024/04/26 22:01:03;;;;;;;4.55;1.30;;;;;;;15.54;92.63;101028.09;10930963;27;20002;-82
2024/04/26 22:06:36;;;;;;;5.20;1.38;;;;;;;15.56;92.51;101019.25;10949948;27;20001;-81
2024/04/26 22:12:01;;;;;;;4.07;1.00;;;;;;;15.51;91.40;101016.53;10957660;27;20030;-82
2024/04/26 22:17:26;;;;;;;5.68;1.25;;;;;;;15.31;91.10;101015.63;10917162;26;20001;-82
2024/04/26 22:22:53;;;;;;;2.55;1.20;;;;;;;15.35;90.35;101002.34;10937020;27;20002;-82
2024/04/26 22:28:17;;;;;;;3.45;1.50;;;;;;;15.30;89.65;101006.78;10934591;27;20009;-82
2024/04/26 22:33:42;;;;;;;2.75;1.17;;;;;;;15.36;89.41;100998.78;10954778;27;20825;-82
2024/04/26 22:39:09;;;;;;;4.05;1.30;;;;;;;15.36;88.36;101003.25;10954409;27;20038;-82
2024/04/26 22:44:33;;;;;;;3.35;1.05;;;;;;;15.28;88.65;100994.38;10916564;27;20561;-82
2024/04/26 22:49:57;;;;;;;1.85;1.20;;;;;;;15.27;88.03;100987.28;10911578;27;20006;-81
2024/04/26 22:55:24;;;;;;;3.83;1.30;;;;;;;15.34;86.96;100992.59;10966938;27;20002;-80
2024/04/26 23:00:50;;;;;;;3.92;1.27;;;;;;;15.23;87.96;100989.03;10950426;27;20005;-82
2024/04/26 23:06:14;;;;;;;4.60;1.35;;;;;;;15.20;88.14;100985.50;10982968;27;20010;-79
2024/04/26 23:11:41;;;;;;;2.67;1.20;;;;;;;15.14;88.26;100983.72;10949187;27;20014;-82
2024/04/26 23:17:06;;;;;;;1.77;0.90;;;;;;;15.00;90.08;100970.44;10922359;26;20004;-81
2024/04/26 23:22:30;;;;;;;2.83;1.27;;;;;;;15.00;88.50;100970.44;10966867;27;20014;-82
2024/04/26 23:27:57;;;;;;;3.65;1.27;;;;;;;14.85;87.62;100970.41;10935086;26;20038;-83
2024/04/26 23:33:21;;;;;;;3.42;0.90;;;;;;;14.90;85.41;100965.97;10951291;27;20056;-83
2024/04/26 23:38:45;;;;;;;2.05;0.98;;;;;;;14.87;83.68;100951.81;10943639;27;20466;-81
2024/04/26 23:44:13;;;;;;;1.23;0.70;;;;;;;14.82;83.62;100962.44;10950377;27;20006;-82
2024/04/26 23:49:37;;;;;;;2.40;0.90;;;;;;;14.77;81.89;100959.75;10945733;27;20028;-82
2024/04/26 23:55:02;;;;;;;2.28;0.90;;;;;;;14.57;81.27;100960.63;10930795;27;19998;-83
